»·PEaware :: N9510L KAJO-KVCV

N9510L :: KAJO-KVCV

FLIGHT INFORMATION

Flight Status: Arrived
Operator: Privately registered:
United States
More flights under this callsign
Pilot: Rich S. (24902)
Aircraft: CESSNA 172 SKYHAWK
(C172)
More flights by this aircraft type
Origin: KAJO Corona Mun
United States
Destination: KVCV Socal Logistics
United States
More flights between these airports :: More routes between these airports
Route: PDZ V442 APLES
File this flight plan on PilotEdge
Remarks:
Altitude:
(Current/Filed)
9,000ft
Speed:
(Current/Filed)
115kts
Departed: 15-Nov-20 08:37 AM
Arrived: 15-Nov-20 10:10 AM
Distance/Time
Traveled:
43nm/1:33
Distance/Time
To Go:
Arrived

Flight Plot

Page will automatically refresh every two minutes.


Map Options




Map Legend


Flown Route
Filed Route
Departure Airport
Arrival Airport
Navaid (VOR, NDB)
Fix

Horizontal Profiles

Position Reports

Time Latitude Longitude Heading Altitude Ground
Speed
15-Nov-20 08:20 33.896993 -117.607461 317 537ft 0kts
15-Nov-20 08:21 33.896993 -117.607461 317 537ft 0kts
15-Nov-20 08:22 33.896993 -117.607461 317 537ft 0kts
15-Nov-20 08:23 33.896993 -117.607461 317 537ft 0kts
15-Nov-20 08:24 33.896993 -117.607461 317 537ft 0kts
15-Nov-20 08:25 33.896993 -117.607461 317 537ft 0kts
15-Nov-20 08:26 33.896993 -117.607461 317 537ft 0kts
15-Nov-20 08:27 33.896993 -117.607461 317 537ft 0kts
15-Nov-20 08:28 33.896993 -117.607461 317 537ft 0kts
15-Nov-20 08:29 33.896993 -117.607461 317 537ft 0kts
15-Nov-20 08:30 33.896993 -117.607461 317 537ft 0kts
15-Nov-20 08:31 33.896993 -117.607461 317 537ft 0kts
15-Nov-20 08:32 33.896993 -117.607461 317 537ft 0kts
15-Nov-20 08:32 33.896993 -117.607461 317 537ft 0kts
15-Nov-20 08:34 33.897001 -117.607463 355 537ft 0kts
15-Nov-20 08:34 33.897165 -117.607515 314 537ft 0kts
15-Nov-20 08:36 33.897213 -117.607576 357 537ft 0kts
15-Nov-20 08:36 33.897581 -117.600471 95 668ft 74kts
15-Nov-20 08:38 33.898363 -117.571208 60 1898ft 80kts
15-Nov-20 08:38 33.905006 -117.551613 87 2795ft 61kts
15-Nov-20 08:39 33.917689 -117.527541 41 3176ft 82kts
15-Nov-20 08:41 33.936703 -117.505583 37 4250ft 81kts
15-Nov-20 08:41 33.935804 -117.488426 171 4992ft 85kts
15-Nov-20 08:43 33.908795 -117.509257 241 5672ft 92kts
15-Nov-20 08:43 33.918029 -117.530973 332 6005ft 95kts
15-Nov-20 08:44 33.942263 -117.516136 47 5988ft 100kts
15-Nov-20 08:45 33.931860 -117.489841 169 6191ft 110kts
15-Nov-20 08:46 33.918348 -117.519439 272 5908ft 122kts
15-Nov-20 08:47 33.932029 -117.544034 18 5980ft 100kts
15-Nov-20 08:48 33.952608 -117.518032 45 5930ft 107kts
15-Nov-20 08:49 33.959089 -117.489723 148 5940ft 106kts
15-Nov-20 08:50 33.935615 -117.506274 222 6402ft 101kts
15-Nov-20 08:51 33.919407 -117.531297 293 7055ft 93kts
15-Nov-20 08:52 33.938443 -117.524122 44 7691ft 90kts
15-Nov-20 08:53 33.956885 -117.505187 33 8233ft 87kts
15-Nov-20 08:54 33.977913 -117.489865 27 8649ft 92kts
15-Nov-20 08:55 34.001418 -117.475476 25 8994ft 98kts
15-Nov-20 08:56 34.028558 -117.459273 22 8953ft 109kts
15-Nov-20 08:57 34.056032 -117.443847 22 8930ft 108kts
15-Nov-20 08:58 34.082636 -117.429369 20 9038ft 105kts
15-Nov-20 08:59 34.111025 -117.414019 20 8844ft 115kts
15-Nov-20 09:00 34.138228 -117.399217 20 8989ft 107kts
15-Nov-20 09:01 34.165615 -117.384155 20 9001ft 109kts
15-Nov-20 09:02 34.193150 -117.368503 21 9011ft 109kts
15-Nov-20 09:03 34.220591 -117.352528 21 9020ft 109kts
15-Nov-20 09:04 34.248048 -117.336439 21 9025ft 109kts
15-Nov-20 09:05 34.275484 -117.320469 22 9028ft 109kts
15-Nov-20 09:06 34.302574 -117.304151 24 9032ft 108kts
15-Nov-20 09:07 34.329339 -117.287420 24 9036ft 108kts
15-Nov-20 09:08 34.356072 -117.270845 24 9040ft 107kts
15-Nov-20 09:09 34.382692 -117.254426 24 9043ft 107kts
15-Nov-20 09:10 34.409322 -117.238029 24 9046ft 107kts
15-Nov-20 09:11 34.435907 -117.221655 24 9048ft 107kts
15-Nov-20 09:12 34.462494 -117.205332 24 9050ft 107kts
15-Nov-20 09:13 34.489054 -117.189158 24 9051ft 106kts
15-Nov-20 09:14 34.515618 -117.173206 24 9052ft 106kts
15-Nov-20 09:15 34.541103 -117.155350 42 9054ft 106kts
15-Nov-20 09:16 34.568706 -117.146361 9 8460ft 106kts
15-Nov-20 09:17 34.598210 -117.145025 358 7852ft 109kts
15-Nov-20 09:18 34.628182 -117.146929 355 7306ft 109kts
15-Nov-20 09:19 34.657921 -117.155692 344 6871ft 113kts
15-Nov-20 09:20 34.686142 -117.171952 343 6682ft 113kts
15-Nov-20 09:21 34.713317 -117.190824 329 6856ft 114kts
15-Nov-20 09:22 34.738359 -117.214965 323 6681ft 115kts
15-Nov-20 09:23 34.758801 -117.244965 309 6683ft 117kts
15-Nov-20 09:24 34.776241 -117.278499 310 6541ft 115kts
15-Nov-20 09:25 34.789740 -117.315056 288 5963ft 118kts
15-Nov-20 09:26 34.796668 -117.354216 270 5158ft 119kts
15-Nov-20 09:27 34.776150 -117.378056 184 4521ft 103kts
15-Nov-20 09:28 34.747355 -117.378655 175 4418ft 101kts
15-Nov-20 09:29 34.719025 -117.379000 172 4357ft 100kts
15-Nov-20 09:30 34.690992 -117.379176 179 4214ft 101kts
15-Nov-20 09:31 34.663534 -117.382676 185 3589ft 101kts
15-Nov-20 09:32 34.637002 -117.386537 176 3228ft 90kts
15-Nov-20 09:33 34.612067 -117.385246 175 3935ft 83kts
15-Nov-20 09:34 34.588781 -117.385758 187 4766ft 98kts
15-Nov-20 09:35 34.566539 -117.399919 247 5688ft 98kts
15-Nov-20 09:36 34.575412 -117.435075 292 6048ft 130kts
15-Nov-20 09:37 34.585003 -117.478938 312 6029ft 131kts
15-Nov-20 09:38 34.608369 -117.511678 315 6034ft 127kts
15-Nov-20 09:39 34.631657 -117.543879 315 6040ft 127kts
15-Nov-20 09:40 34.642469 -117.584050 272 6045ft 131kts
15-Nov-20 09:41 34.646692 -117.627963 282 6052ft 130kts
15-Nov-20 09:42 34.652693 -117.671153 282 6053ft 128kts
15-Nov-20 09:43 34.658409 -117.713592 282 6049ft 126kts
15-Nov-20 09:44 34.664367 -117.754122 282 5975ft 112kts
15-Nov-20 09:45 34.652316 -117.776082 141 6112ft 95kts
15-Nov-20 09:46 34.646620 -117.746392 80 6256ft 89kts
15-Nov-20 09:47 34.660911 -117.735732 299 6147ft 103kts
15-Nov-20 09:48 34.666558 -117.768640 268 6241ft 102kts
15-Nov-20 09:49 34.650754 -117.765328 76 6163ft 100kts
15-Nov-20 09:50 34.660773 -117.734542 41 6021ft 105kts
15-Nov-20 09:51 34.680242 -117.715013 42 6291ft 72kts
15-Nov-20 09:52 34.701322 -117.690479 42 6042ft 119kts
15-Nov-20 09:53 34.725066 -117.663506 42 6031ft 115kts
15-Nov-20 09:54 34.748727 -117.637241 43 6024ft 115kts
15-Nov-20 09:55 34.772624 -117.611376 43 6017ft 115kts
15-Nov-20 09:56 34.796736 -117.585835 42 6009ft 115kts
15-Nov-20 09:57 34.800726 -117.549176 91 5892ft 115kts
15-Nov-20 09:58 34.799116 -117.511390 90 5980ft 105kts
15-Nov-20 09:59 34.798543 -117.475400 86 6118ft 101kts
15-Nov-20 10:00 34.799845 -117.438756 90 6166ft 119kts
15-Nov-20 10:01 34.798069 -117.399178 84 5636ft 117kts
15-Nov-20 10:02 34.772251 -117.394311 213 4538ft 130kts
15-Nov-20 10:03 34.742521 -117.408057 148 3522ft 110kts
15-Nov-20 10:04 34.721950 -117.391460 138 4306ft 83kts
15-Nov-20 10:05 34.693421 -117.385987 185 4189ft 116kts
15-Nov-20 10:06 34.665606 -117.387085 173 3638ft 91kts
15-Nov-20 10:07 34.642938 -117.386600 176 3290ft 80kts
15-Nov-20 10:08 34.621954 -117.386779 180 2855ft 59kts
15-Nov-20 10:09 34.615991 -117.384720 111 2820ft 10kts
15-Nov-20 10:10 34.615246 -117.384200 183 2822ft 7kts
15-Nov-20 10:11 34.610827 -117.384161 175 2827ft 13kts
15-Nov-20 10:12 34.606730 -117.384143 177 2835ft 15kts
15-Nov-20 10:13 34.602186 -117.384062 176 2841ft 16kts
15-Nov-20 10:14 34.597746 -117.384048 178 2850ft 16kts
15-Nov-20 10:16 34.593001 -117.381701 133 2859ft 33kts
15-Nov-20 10:17 34.589318 -117.375935 111 2868ft 11kts
15-Nov-20 10:18 34.589311 -117.375596 84 2868ft 0kts
15-Nov-20 10:19 34.589311 -117.375596 84 2868ft 0kts
15-Nov-20 10:20 34.589311 -117.375596 84 2868ft 0kts
15-Nov-20 10:21 34.589311 -117.375596 84 2868ft 0kts

Navigation Log

Ident Type
Flight plan parsing failed, navigation log unavailable